sensor_id;sensor_type;location;lat;lon;timestamp;pressure;altitude;pressure_sealevel;temperature;humidity
11678;BME280;5895;41.950;24.372;2023-03-22T00:00:44;86314.50;;;6.67;87.22
11678;BME280;5895;41.950;24.372;2023-03-22T00:03:12;86313.72;;;6.67;85.58
11678;BME280;5895;41.950;24.372;2023-03-22T00:05:39;86326.44;;;6.68;85.52
11678;BME280;5895;41.950;24.372;2023-03-22T00:08:08;86319.66;;;6.67;86.52
11678;BME280;5895;41.950;24.372;2023-03-22T00:10:37;86318.09;;;6.66;84.68
11678;BME280;5895;41.950;24.372;2023-03-22T00:13:05;86316.53;;;6.65;85.37
11678;BME280;5895;41.950;24.372;2023-03-22T00:15:33;86314.19;;;6.63;86.07
11678;BME280;5895;41.950;24.372;2023-03-22T00:18:00;86313.97;;;6.65;85.84
11678;BME280;5895;41.950;24.372;2023-03-22T00:20:28;86314.97;;;6.64;87.01
11678;BME280;5895;41.950;24.372;2023-03-22T00:22:56;86316.97;;;6.62;86.82
11678;BME280;5895;41.950;24.372;2023-03-22T00:25:25;86314.97;;;6.64;88.09
11678;BME280;5895;41.950;24.372;2023-03-22T00:27:52;86313.41;;;6.63;87.88
11678;BME280;5895;41.950;24.372;2023-03-22T00:30:19;86311.78;;;6.62;88.03
11678;BME280;5895;41.950;24.372;2023-03-22T00:32:46;86308.81;;;6.65;87.02
11678;BME280;5895;41.950;24.372;2023-03-22T00:35:13;86301.63;;;6.67;87.61
11678;BME280;5895;41.950;24.372;2023-03-22T00:37:40;86301.63;;;6.67;87.29
11678;BME280;5895;41.950;24.372;2023-03-22T00:40:10;86297.06;;;6.69;87.05
11678;BME280;5895;41.950;24.372;2023-03-22T00:42:40;86288.31;;;6.70;86.48
11678;BME280;5895;41.950;24.372;2023-03-22T00:45:09;86288.88;;;6.72;86.42
11678;BME280;5895;41.950;24.372;2023-03-22T00:47:37;86290.91;;;6.70;86.64
11678;BME280;5895;41.950;24.372;2023-03-22T00:50:05;86279.22;;;6.68;87.18
11678;BME280;5895;41.950;24.372;2023-03-22T00:52:33;86278.44;;;6.67;87.33
11678;BME280;5895;41.950;24.372;2023-03-22T00:55:00;86283.81;;;6.66;86.80
11678;BME280;5895;41.950;24.372;2023-03-22T00:57:27;86286.03;;;6.62;87.11
11678;BME280;5895;41.950;24.372;2023-03-22T00:59:56;86277.72;;;6.60;87.39
11678;BME280;5895;41.950;24.372;2023-03-22T01:02:23;86279.94;;;6.56;87.65
11678;BME280;5895;41.950;24.372;2023-03-22T01:04:54;86279.16;;;6.56;87.32
11678;BME280;5895;41.950;24.372;2023-03-22T01:07:22;86273.44;;;6.54;86.80
11678;BME280;5895;41.950;24.372;2023-03-22T01:09:50;86269.31;;;6.53;86.96
11678;BME280;5895;41.950;24.372;2023-03-22T01:12:18;86281.81;;;6.49;87.51
11678;BME280;5895;41.950;24.372;2023-03-22T01:14:45;86274.88;;;6.50;86.31
11678;BME280;5895;41.950;24.372;2023-03-22T01:17:14;86278.25;;;6.50;86.96
11678;BME280;5895;41.950;24.372;2023-03-22T01:19:41;86271.28;;;6.51;86.17
11678;BME280;5895;41.950;24.372;2023-03-22T01:22:08;86271.75;;;6.48;87.27
11678;BME280;5895;41.950;24.372;2023-03-22T01:24:35;86271.75;;;6.48;86.50
11678;BME280;5895;41.950;24.372;2023-03-22T01:27:02;86265.56;;;6.49;86.02
11678;BME280;5895;41.950;24.372;2023-03-22T01:29:30;86270.72;;;6.49;86.80
11678;BME280;5895;41.950;24.372;2023-03-22T01:31:57;86279.47;;;6.48;86.42
11678;BME280;5895;41.950;24.372;2023-03-22T01:34:26;86270.03;;;6.42;87.13
11678;BME280;5895;41.950;24.372;2023-03-22T01:36:53;86274.75;;;6.45;87.33
11678;BME280;5895;41.950;24.372;2023-03-22T01:39:20;86269.59;;;6.45;86.45
11678;BME280;5895;41.950;24.372;2023-03-22T01:41:47;86274.75;;;6.45;86.32
11678;BME280;5895;41.950;24.372;2023-03-22T01:44:16;86275.31;;;6.47;86.00
11678;BME280;5895;41.950;24.372;2023-03-22T01:46:44;86273.75;;;6.46;86.86
11678;BME280;5895;41.950;24.372;2023-03-22T01:49:14;86268.47;;;6.41;87.58
11678;BME280;5895;41.950;24.372;2023-03-22T01:51:45;86277.75;;;6.42;89.35
11678;BME280;5895;41.950;24.372;2023-03-22T01:54:17;86276.38;;;6.39;87.74
11678;BME280;5895;41.950;24.372;2023-03-22T01:56:46;86275.59;;;6.39;88.18
11678;BME280;5895;41.950;24.372;2023-03-22T01:59:13;86272.47;;;6.36;88.63
11678;BME280;5895;41.950;24.372;2023-03-22T02:01:41;86268.19;;;6.30;87.38
11678;BME280;5895;41.950;24.372;2023-03-22T02:04:14;86271.75;;;6.29;87.37
11678;BME280;5895;41.950;24.372;2023-03-22T02:06:44;86269.19;;;6.29;88.19
11678;BME280;5895;41.950;24.372;2023-03-22T02:09:13;86273.75;;;6.27;88.00
11678;BME280;5895;41.950;24.372;2023-03-22T02:11:43;86266.25;;;6.26;88.06
11678;BME280;5895;41.950;24.372;2023-03-22T02:14:47;86272.19;;;6.26;94.25
11678;BME280;5895;41.950;24.372;2023-03-22T02:17:27;86275.78;;;6.25;89.65
11678;BME280;5895;41.950;24.372;2023-03-22T02:20:20;86268.81;;;6.26;93.43
11678;BME280;5895;41.950;24.372;2023-03-22T02:26:42;86276.19;;;6.22;95.12
11678;BME280;5895;41.950;24.372;2023-03-22T02:29:17;86272.91;;;6.15;87.59
11678;BME280;5895;41.950;24.372;2023-03-22T02:34:47;86281.06;;;6.12;90.08
11678;BME280;5895;41.950;24.372;2023-03-22T02:40:20;86274.19;;;6.06;89.92
11678;BME280;5895;41.950;24.372;2023-03-22T02:42:55;86274.63;;;6.03;90.70
11678;BME280;5895;41.950;24.372;2023-03-22T02:45:27;86278.41;;;6.00;88.58
11678;BME280;5895;41.950;24.372;2023-03-22T02:48:04;86282.75;;;6.00;89.45
11678;BME280;5895;41.950;24.372;2023-03-22T02:50:38;86284.34;;;6.01;88.16
11678;BME280;5895;41.950;24.372;2023-03-22T02:53:13;86277.59;;;6.00;89.40
11678;BME280;5895;41.950;24.372;2023-03-22T02:55:47;86277.06;;;5.98;90.31
11678;BME280;5895;41.950;24.372;2023-03-22T02:58:18;86280.84;;;5.95;88.74
11678;BME280;5895;41.950;24.372;2023-03-22T03:00:50;86278.06;;;5.97;88.84
11678;BME280;5895;41.950;24.372;2023-03-22T03:03:21;86284.00;;;5.97;88.63
11678;BME280;5895;41.950;24.372;2023-03-22T03:05:53;86280.41;;;5.98;89.42
11678;BME280;5895;41.950;24.372;2023-03-22T03:08:22;86280.63;;;5.97;87.60
11678;BME280;5895;41.950;24.372;2023-03-22T03:10:53;86277.47;;;5.95;89.21
11678;BME280;5895;41.950;24.372;2023-03-22T03:13:20;86276.91;;;5.93;87.98
11678;BME280;5895;41.950;24.372;2023-03-22T03:15:51;86284.63;;;5.93;89.37
11678;BME280;5895;41.950;24.372;2023-03-22T03:18:30;86287.19;;;5.93;89.94
11678;BME280;5895;41.950;24.372;2023-03-22T03:21:05;86283.84;;;5.92;88.83
11678;BME280;5895;41.950;24.372;2023-03-22T03:23:46;86285.03;;;5.90;91.03
11678;BME280;5895;41.950;24.372;2023-03-22T03:26:21;86290.19;;;5.90;89.99
11678;BME280;5895;41.950;24.372;2023-03-22T03:28:52;86289.81;;;5.86;89.29
11678;BME280;5895;41.950;24.372;2023-03-22T03:31:30;86290.59;;;5.87;90.50
11678;BME280;5895;41.950;24.372;2023-03-22T03:34:10;86291.59;;;5.86;91.55
11678;BME280;5895;41.950;24.372;2023-03-22T03:36:41;86288.88;;;5.80;89.40
11678;BME280;5895;41.950;24.372;2023-03-22T03:39:11;86282.72;;;5.81;91.14
11678;BME280;5895;41.950;24.372;2023-03-22T03:41:43;86287.31;;;5.79;90.64
11678;BME280;5895;41.950;24.372;2023-03-22T03:44:13;86289.28;;;5.77;90.81
11678;BME280;5895;41.950;24.372;2023-03-22T03:46:41;86284.56;;;5.74;90.16
11678;BME280;5895;41.950;24.372;2023-03-22T03:49:11;86282.41;;;5.71;90.74
11678;BME280;5895;41.950;24.372;2023-03-22T03:51:48;86279.06;;;5.71;93.06
11678;BME280;5895;41.950;24.372;2023-03-22T03:54:16;86282.69;;;5.63;91.41
11678;BME280;5895;41.950;24.372;2023-03-22T03:56:45;86283.69;;;5.62;90.82
11678;BME280;5895;41.950;24.372;2023-03-22T03:59:13;86283.91;;;5.61;90.33
11678;BME280;5895;41.950;24.372;2023-03-22T04:01:41;86292.41;;;5.61;89.11
11678;BME280;5895;41.950;24.372;2023-03-22T04:04:15;86285.69;;;5.60;89.12
11678;BME280;5895;41.950;24.372;2023-03-22T04:06:42;86286.69;;;5.59;88.06
11678;BME280;5895;41.950;24.372;2023-03-22T04:09:09;86291.84;;;5.59;88.25
11678;BME280;5895;41.950;24.372;2023-03-22T04:11:37;86291.06;;;5.58;88.15
11678;BME280;5895;41.950;24.372;2023-03-22T04:14:05;86292.28;;;5.56;89.61
11678;BME280;5895;41.950;24.372;2023-03-22T04:16:33;86301.81;;;5.49;90.12
11678;BME280;5895;41.950;24.372;2023-03-22T04:19:00;86302.25;;;5.46;88.87
11678;BME280;5895;41.950;24.372;2023-03-22T04:21:27;86301.66;;;5.44;89.23
11678;BME280;5895;41.950;24.372;2023-03-22T04:23:54;86303.66;;;5.42;89.15
11678;BME280;5895;41.950;24.372;2023-03-22T04:26:22;86297.94;;;5.40;89.87
11678;BME280;5895;41.950;24.372;2023-03-22T04:28:49;86298.78;;;5.34;89.37
11678;BME280;5895;41.950;24.372;2023-03-22T04:31:17;86303.50;;;5.37;89.98
11678;BME280;5895;41.950;24.372;2023-03-22T04:33:45;86306.28;;;5.35;90.27
11678;BME280;5895;41.950;24.372;2023-03-22T04:36:14;86304.91;;;5.32;89.49
11678;BME280;5895;41.950;24.372;2023-03-22T04:38:42;86310.47;;;5.29;89.46
11678;BME280;5895;41.950;24.372;2023-03-22T04:41:09;86312.06;;;5.30;89.02
11678;BME280;5895;41.950;24.372;2023-03-22T04:43:37;86304.91;;;5.32;88.96
11678;BME280;5895;41.950;24.372;2023-03-22T04:46:05;86307.47;;;5.32;88.35
11678;BME280;5895;41.950;24.372;2023-03-22T04:48:38;86310.03;;;5.32;88.29
11678;BME280;5895;41.950;24.372;2023-03-22T04:51:07;86314.22;;;5.34;87.67
11678;BME280;5895;41.950;24.372;2023-03-22T04:53:35;86320.94;;;5.35;87.40
11678;BME280;5895;41.950;24.372;2023-03-22T04:56:04;86318.94;;;5.37;87.20
11678;BME280;5895;41.950;24.372;2023-03-22T04:58:33;86326.88;;;5.35;87.87
11678;BME280;5895;41.950;24.372;2023-03-22T05:01:01;86326.47;;;5.31;87.69
11678;BME280;5895;41.950;24.372;2023-03-22T05:03:29;86337.56;;;5.32;87.58
11678;BME280;5895;41.950;24.372;2023-03-22T05:05:59;86336.56;;;5.33;87.79
11678;BME280;5895;41.950;24.372;2023-03-22T05:08:28;86330.63;;;5.32;87.27
11678;BME280;5895;41.950;24.372;2023-03-22T05:10:56;86331.63;;;5.31;86.77
11678;BME280;5895;41.950;24.372;2023-03-22T05:13:26;86341.91;;;5.31;86.73
11678;BME280;5895;41.950;24.372;2023-03-22T05:15:53;86348.84;;;5.31;87.26
11678;BME280;5895;41.950;24.372;2023-03-22T05:18:21;86341.91;;;5.31;87.22
11678;BME280;5895;41.950;24.372;2023-03-22T05:20:51;86349.06;;;5.29;86.55
11678;BME280;5895;41.950;24.372;2023-03-22T05:23:22;86349.63;;;5.31;88.18
11678;BME280;5895;41.950;24.372;2023-03-22T05:25:50;86351.19;;;5.32;87.24
11678;BME280;5895;41.950;24.372;2023-03-22T05:28:19;86357.34;;;5.31;86.67
11678;BME280;5895;41.950;24.372;2023-03-22T05:30:47;86353.78;;;5.32;87.28
11678;BME280;5895;41.950;24.372;2023-03-22T05:33:16;86363.09;;;5.34;86.63
11678;BME280;5895;41.950;24.372;2023-03-22T05:35:46;86356.94;;;5.35;86.80
11678;BME280;5895;41.950;24.372;2023-03-22T05:38:14;86356.16;;;5.34;87.71
11678;BME280;5895;41.950;24.372;2023-03-22T05:40:42;86365.22;;;5.37;86.84
11678;BME280;5895;41.950;24.372;2023-03-22T05:43:10;86365.22;;;5.37;86.91
11678;BME280;5895;41.950;24.372;2023-03-22T05:45:37;86358.28;;;5.37;87.02
11678;BME280;5895;41.950;24.372;2023-03-22T05:48:05;86365.81;;;5.39;87.82
11678;BME280;5895;41.950;24.372;2023-03-22T05:50:32;86364.81;;;5.40;87.16
11678;BME280;5895;41.950;24.372;2023-03-22T05:53:00;86364.81;;;5.40;87.61
11678;BME280;5895;41.950;24.372;2023-03-22T05:55:27;86375.91;;;5.40;87.62
11678;BME280;5895;41.950;24.372;2023-03-22T05:57:58;86371.09;;;5.44;87.80
11678;BME280;5895;41.950;24.372;2023-03-22T06:00:27;86373.13;;;5.42;87.66
11678;BME280;5895;41.950;24.372;2023-03-22T06:02:57;86374.50;;;5.38;88.62
11678;BME280;5895;41.950;24.372;2023-03-22T06:05:27;86377.53;;;5.35;89.72
11678;BME280;5895;41.950;24.372;2023-03-22T06:07:55;86378.72;;;5.32;89.07
11678;BME280;5895;41.950;24.372;2023-03-22T06:10:22;86376.34;;;5.30;88.97
11678;BME280;5895;41.950;24.372;2023-03-22T06:12:51;86380.31;;;5.26;88.68
11678;BME280;5895;41.950;24.372;2023-03-22T06:15:20;86381.91;;;5.27;88.86
11678;BME280;5895;41.950;24.372;2023-03-22T06:17:47;86380.75;;;5.23;88.90
11678;BME280;5895;41.950;24.372;2023-03-22T06:20:15;86385.91;;;5.23;88.10
11678;BME280;5895;41.950;24.372;2023-03-22T06:22:42;86388.81;;;5.27;88.31
11678;BME280;5895;41.950;24.372;2023-03-22T06:25:10;86388.63;;;5.28;87.56
11678;BME280;5895;41.950;24.372;2023-03-22T06:27:37;86397.31;;;5.27;88.16
11678;BME280;5895;41.950;24.372;2023-03-22T06:30:05;86395.94;;;5.31;87.38
11678;BME280;5895;41.950;24.372;2023-03-22T06:32:34;86395.34;;;5.29;88.06
11678;BME280;5895;41.950;24.372;2023-03-22T06:35:01;86402.06;;;5.30;88.02
11678;BME280;5895;41.950;24.372;2023-03-22T06:37:28;86399.72;;;5.29;87.49
11678;BME280;5895;41.950;24.372;2023-03-22T06:39:55;86398.94;;;5.28;87.83
11678;BME280;5895;41.950;24.372;2023-03-22T06:42:22;86403.06;;;5.29;88.06
11678;BME280;5895;41.950;24.372;2023-03-22T06:44:50;86408.00;;;5.31;88.26
11678;BME280;5895;41.950;24.372;2023-03-22T06:47:17;86408.00;;;5.31;88.41
11678;BME280;5895;41.950;24.372;2023-03-22T06:49:46;86416.34;;;5.26;89.12
11678;BME280;5895;41.950;24.372;2023-03-22T06:52:13;86409.22;;;5.28;88.49
11678;BME280;5895;41.950;24.372;2023-03-22T06:54:40;86417.53;;;5.24;90.03
11678;BME280;5895;41.950;24.372;2023-03-22T06:57:07;86414.81;;;5.19;89.67
11678;BME280;5895;41.950;24.372;2023-03-22T06:59:34;86410.88;;;5.16;89.70
11678;BME280;5895;41.950;24.372;2023-03-22T07:02:02;86423.50;;;5.18;88.78
11678;BME280;5895;41.950;24.372;2023-03-22T07:04:29;86418.16;;;5.19;88.70
11678;BME280;5895;41.950;24.372;2023-03-22T07:06:59;86418.13;;;5.26;88.14
11678;BME280;5895;41.950;24.372;2023-03-22T07:09:26;86423.66;;;5.29;88.94
11678;BME280;5895;41.950;24.372;2023-03-22T07:11:53;86418.34;;;5.24;88.01
11678;BME280;5895;41.950;24.372;2023-03-22T07:14:20;86421.47;;;5.26;87.94
11678;BME280;5895;41.950;24.372;2023-03-22T07:16:47;86427.22;;;5.28;87.95
11678;BME280;5895;41.950;24.372;2023-03-22T07:19:14;86427.22;;;5.28;88.88
11678;BME280;5895;41.950;24.372;2023-03-22T07:21:43;86430.63;;;5.22;88.79
11678;BME280;5895;41.950;24.372;2023-03-22T07:24:11;86429.00;;;5.21;88.87
11678;BME280;5895;41.950;24.372;2023-03-22T07:26:38;86431.00;;;5.19;89.51
11678;BME280;5895;41.950;24.372;2023-03-22T07:29:06;86430.00;;;5.20;88.79
11678;BME280;5895;41.950;24.372;2023-03-22T07:31:33;86426.31;;;5.16;89.80
11678;BME280;5895;41.950;24.372;2023-03-22T07:34:01;86442.88;;;5.20;90.22
11678;BME280;5895;41.950;24.372;2023-03-22T07:36:29;86445.28;;;5.15;90.08
11678;BME280;5895;41.950;24.372;2023-03-22T07:38:56;86444.47;;;5.15;90.57
11678;BME280;5895;41.950;24.372;2023-03-22T07:41:25;86448.47;;;5.11;91.12
11678;BME280;5895;41.950;24.372;2023-03-22T07:43:54;86453.44;;;5.06;91.73
11678;BME280;5895;41.950;24.372;2023-03-22T07:46:21;86448.47;;;5.04;91.73
11678;BME280;5895;41.950;24.372;2023-03-22T07:48:49;86450.88;;;4.99;92.74
11678;BME280;5895;41.950;24.372;2023-03-22T07:51:16;86451.28;;;4.96;92.69
11678;BME280;5895;41.950;24.372;2023-03-22T07:53:43;86455.66;;;4.95;92.25
11678;BME280;5895;41.950;24.372;2023-03-22T07:56:10;86457.84;;;4.92;91.88
11678;BME280;5895;41.950;24.372;2023-03-22T07:58:39;86454.88;;;4.95;91.22
11678;BME280;5895;41.950;24.372;2023-03-22T08:01:07;86456.25;;;4.91;92.05
11678;BME280;5895;41.950;24.372;2023-03-22T08:03:35;86450.91;;;4.92;91.07
11678;BME280;5895;41.950;24.372;2023-03-22T08:06:03;86461.97;;;4.93;91.31
11678;BME280;5895;41.950;24.372;2023-03-22T08:08:33;86462.97;;;4.92;91.12
11678;BME280;5895;41.950;24.372;2023-03-22T08:11:01;86471.88;;;4.96;90.56
11678;BME280;5895;41.950;24.372;2023-03-22T08:13:28;86471.44;;;4.99;90.04
11678;BME280;5895;41.950;24.372;2023-03-22T08:15:57;86465.34;;;4.93;91.80
11678;BME280;5895;41.950;24.372;2023-03-22T08:18:24;86467.53;;;4.90;91.58
11678;BME280;5895;41.950;24.372;2023-03-22T08:20:55;86474.25;;;4.91;93.53
11678;BME280;5895;41.950;24.372;2023-03-22T08:23:23;86474.63;;;4.88;91.85
11678;BME280;5895;41.950;24.372;2023-03-22T08:25:51;86474.63;;;4.88;92.25
11678;BME280;5895;41.950;24.372;2023-03-22T08:28:18;86479.38;;;4.91;90.82
11678;BME280;5895;41.950;24.372;2023-03-22T08:30:46;86479.00;;;4.94;90.01
11678;BME280;5895;41.950;24.372;2023-03-22T08:33:15;86483.94;;;4.95;90.28
11678;BME280;5895;41.950;24.372;2023-03-22T08:35:45;86482.16;;;4.96;89.11
11678;BME280;5895;41.950;24.372;2023-03-22T08:38:12;86475.00;;;4.98;89.25
11678;BME280;5895;41.950;24.372;2023-03-22T08:40:40;86481.34;;;5.02;89.46
11678;BME280;5895;41.950;24.372;2023-03-22T08:43:07;86474.38;;;5.09;89.14
11678;BME280;5895;41.950;24.372;2023-03-22T08:45:34;86478.13;;;5.13;90.55
11678;BME280;5895;41.950;24.372;2023-03-22T08:48:02;86477.72;;;5.16;89.04
11678;BME280;5895;41.950;24.372;2023-03-22T08:50:31;86476.13;;;5.22;88.81
11678;BME280;5895;41.950;24.372;2023-03-22T08:52:59;86476.91;;;5.22;89.12
11678;BME280;5895;41.950;24.372;2023-03-22T08:55:26;86484.03;;;5.20;88.87
11678;BME280;5895;41.950;24.372;2023-03-22T08:57:53;86475.91;;;5.23;88.72
11678;BME280;5895;41.950;24.372;2023-03-22T09:00:23;86481.25;;;5.22;88.91
11678;BME280;5895;41.950;24.372;2023-03-22T09:02:51;86481.63;;;5.25;88.57
11678;BME280;5895;41.950;24.372;2023-03-22T09:05:18;86484.41;;;5.24;88.70
11678;BME280;5895;41.950;24.372;2023-03-22T09:07:50;86490.56;;;5.23;90.45
11678;BME280;5895;41.950;24.372;2023-03-22T09:10:18;86485.84;;;5.13;89.40
11678;BME280;5895;41.950;24.372;2023-03-22T09:12:45;86484.66;;;5.09;89.63
11678;BME280;5895;41.950;24.372;2023-03-22T09:15:12;86484.84;;;5.14;88.37
11678;BME280;5895;41.950;24.372;2023-03-22T09:17:39;86475.38;;;5.08;87.37
11678;BME280;5895;41.950;24.372;2023-03-22T09:20:07;86481.50;;;5.07;89.17
11678;BME280;5895;41.950;24.372;2023-03-22T09:22:34;86485.09;;;5.06;88.86
11678;BME280;5895;41.950;24.372;2023-03-22T09:25:04;86480.69;;;5.13;86.35
11678;BME280;5895;41.950;24.372;2023-03-22T09:27:31;86482.88;;;5.16;86.75
11678;BME280;5895;41.950;24.372;2023-03-22T09:29:59;86481.06;;;5.23;85.68
11678;BME280;5895;41.950;24.372;2023-03-22T09:32:26;86489.13;;;5.34;85.05
11678;BME280;5895;41.950;24.372;2023-03-22T09:34:53;86486.69;;;5.39;84.82
11678;BME280;5895;41.950;24.372;2023-03-22T09:37:20;86494.19;;;5.47;83.83
11678;BME280;5895;41.950;24.372;2023-03-22T09:39:47;86484.09;;;5.52;83.99
11678;BME280;5895;41.950;24.372;2023-03-22T09:42:30;86482.69;;;5.56;86.64
11678;BME280;5895;41.950;24.372;2023-03-22T09:44:59;86483.91;;;5.47;84.61
11678;BME280;5895;41.950;24.372;2023-03-22T09:47:32;86475.63;;;5.45;85.81
11678;BME280;5895;41.950;24.372;2023-03-22T09:50:06;86485.47;;;5.48;86.12
11678;BME280;5895;41.950;24.372;2023-03-22T09:52:34;86488.25;;;5.46;85.01
11678;BME280;5895;41.950;24.372;2023-03-22T09:55:01;86492.97;;;5.49;84.30
11678;BME280;5895;41.950;24.372;2023-03-22T09:57:33;86496.34;;;5.56;85.06
11678;BME280;5895;41.950;24.372;2023-03-22T10:00:07;86490.34;;;5.63;85.73
11678;BME280;5895;41.950;24.372;2023-03-22T10:02:47;86495.28;;;5.64;86.54
11678;BME280;5895;41.950;24.372;2023-03-22T10:05:24;86498.03;;;5.69;85.21
11678;BME280;5895;41.950;24.372;2023-03-22T10:08:04;86487.75;;;5.69;87.00
11678;BME280;5895;41.950;24.372;2023-03-22T10:10:35;86500.44;;;5.64;84.80
11678;BME280;5895;41.950;24.372;2023-03-22T10:13:13;86497.28;;;5.62;86.00
11678;BME280;5895;41.950;24.372;2023-03-22T10:15:46;86495.69;;;5.61;85.63
11678;BME280;5895;41.950;24.372;2023-03-22T10:18:18;86497.69;;;5.59;87.46
11678;BME280;5895;41.950;24.372;2023-03-22T10:20:51;86492.19;;;5.49;87.64
11678;BME280;5895;41.950;24.372;2023-03-22T10:23:25;86499.75;;;5.44;88.74
11678;BME280;5895;41.950;24.372;2023-03-22T10:25:55;86498.78;;;5.38;87.59
11678;BME280;5895;41.950;24.372;2023-03-22T10:28:28;86498.59;;;5.40;87.03
11678;BME280;5895;41.950;24.372;2023-03-22T10:30:57;86499.78;;;5.37;86.20
11678;BME280;5895;41.950;24.372;2023-03-22T10:33:32;86505.31;;;5.41;87.34
11678;BME280;5895;41.950;24.372;2023-03-22T10:36:03;86500.91;;;5.48;86.73
11678;BME280;5895;41.950;24.372;2023-03-22T10:38:33;86494.78;;;5.49;86.59
11678;BME280;5895;41.950;24.372;2023-03-22T10:41:06;86501.66;;;5.55;85.57
11678;BME280;5895;41.950;24.372;2023-03-22T10:43:37;86505.63;;;5.57;86.53
11678;BME280;5895;41.950;24.372;2023-03-22T10:46:14;86494.13;;;5.60;86.74
11678;BME280;5895;41.950;24.372;2023-03-22T10:48:45;86492.81;;;5.51;85.27
11678;BME280;5895;41.950;24.372;2023-03-22T10:51:20;86500.94;;;5.41;88.48
11678;BME280;5895;41.950;24.372;2023-03-22T10:53:51;86497.47;;;5.22;88.01
11678;BME280;5895;41.950;24.372;2023-03-22T10:56:20;86496.69;;;5.15;86.95
11678;BME280;5895;41.950;24.372;2023-03-22T10:58:49;86498.69;;;5.13;88.53
11678;BME280;5895;41.950;24.372;2023-03-22T11:01:25;86503.06;;;5.06;92.12
11678;BME280;5895;41.950;24.372;2023-03-22T11:03:56;86493.59;;;5.00;91.13
11678;BME280;5895;41.950;24.372;2023-03-22T11:06:25;86501.31;;;5.00;90.00
11678;BME280;5895;41.950;24.372;2023-03-22T11:08:58;86501.91;;;5.02;92.38
11678;BME280;5895;41.950;24.372;2023-03-22T11:11:27;86498.75;;;5.00;89.78
11678;BME280;5895;41.950;24.372;2023-03-22T11:13:59;86495.38;;;5.06;90.15
11678;BME280;5895;41.950;24.372;2023-03-22T11:16:28;86499.50;;;5.07;88.80
11678;BME280;5895;41.950;24.372;2023-03-22T11:18:57;86500.69;;;5.11;87.52
11678;BME280;5895;41.950;24.372;2023-03-22T11:21:30;86497.31;;;5.17;88.83
11678;BME280;5895;41.950;24.372;2023-03-22T11:23:59;86493.72;;;5.18;88.45
11678;BME280;5895;41.950;24.372;2023-03-22T11:26:31;86492.34;;;5.22;88.78
11678;BME280;5895;41.950;24.372;2023-03-22T11:29:12;86491.34;;;5.23;91.94
11678;BME280;5895;41.950;24.372;2023-03-22T11:31:55;86493.91;;;5.23;91.88
11678;BME280;5895;41.950;24.372;2023-03-22T11:34:24;86485.03;;;5.19;88.40
11678;BME280;5895;41.950;24.372;2023-03-22T11:36:52;86488.38;;;5.20;88.29
11678;BME280;5895;41.950;24.372;2023-03-22T11:39:23;86483.22;;;5.20;87.85
11678;BME280;5895;41.950;24.372;2023-03-22T11:41:55;86472.56;;;5.23;87.94
11678;BME280;5895;41.950;24.372;2023-03-22T11:44:27;86474.91;;;5.24;88.51
11678;BME280;5895;41.950;24.372;2023-03-22T11:46:59;86484.78;;;5.27;88.18
11678;BME280;5895;41.950;24.372;2023-03-22T11:49:35;86482.03;;;5.29;89.31
11678;BME280;5895;41.950;24.372;2023-03-22T11:52:09;86471.34;;;5.25;91.60
11678;BME280;5895;41.950;24.372;2023-03-22T11:54:38;86471.38;;;5.19;90.69
11678;BME280;5895;41.950;24.372;2023-03-22T11:57:12;86481.69;;;5.12;92.62
11678;BME280;5895;41.950;24.372;2023-03-22T11:59:47;86475.38;;;5.08;91.95
11678;BME280;5895;41.950;24.372;2023-03-22T12:02:19;86483.09;;;5.08;91.05
11678;BME280;5895;41.950;24.372;2023-03-22T12:04:51;86488.81;;;5.10;90.51
11678;BME280;5895;41.950;24.372;2023-03-22T12:07:21;86492.56;;;5.14;89.19
11678;BME280;5895;41.950;24.372;2023-03-22T12:09:51;86488.38;;;5.20;88.87
11678;BME280;5895;41.950;24.372;2023-03-22T12:12:24;86488.34;;;5.26;88.28
11678;BME280;5895;41.950;24.372;2023-03-22T12:14:56;86489.53;;;5.30;87.79
11678;BME280;5895;41.950;24.372;2023-03-22T12:17:33;86490.28;;;5.38;88.56
11678;BME280;5895;41.950;24.372;2023-03-22T12:20:11;86495.97;;;5.46;88.16
11678;BME280;5895;41.950;24.372;2023-03-22T12:22:46;86498.13;;;5.56;86.02
11678;BME280;5895;41.950;24.372;2023-03-22T12:25:17;86493.28;;;5.66;85.49
11678;BME280;5895;41.950;24.372;2023-03-22T12:27:47;86490.50;;;5.74;84.69
11678;BME280;5895;41.950;24.372;2023-03-22T12:30:20;86484.50;;;5.80;83.50
11678;BME280;5895;41.950;24.372;2023-03-22T12:32:51;86491.41;;;5.87;83.31
11678;BME280;5895;41.950;24.372;2023-03-22T12:35:22;86483.25;;;5.96;81.72
11678;BME280;5895;41.950;24.372;2023-03-22T12:37:54;86493.06;;;6.06;82.64
11678;BME280;5895;41.950;24.372;2023-03-22T12:40:25;86484.88;;;6.16;83.36
11678;BME280;5895;41.950;24.372;2023-03-22T12:43:03;86494.34;;;6.22;83.70
11678;BME280;5895;41.950;24.372;2023-03-22T12:45:39;86486.22;;;6.25;82.73
11678;BME280;5895;41.950;24.372;2023-03-22T12:48:12;86495.28;;;6.27;82.00
11678;BME280;5895;41.950;24.372;2023-03-22T12:50:43;86497.69;;;6.29;82.19
11678;BME280;5895;41.950;24.372;2023-03-22T12:53:14;86500.44;;;6.27;81.98
11678;BME280;5895;41.950;24.372;2023-03-22T12:55:43;86498.09;;;6.26;80.73
11678;BME280;5895;41.950;24.372;2023-03-22T12:58:14;86506.53;;;6.33;82.22
11678;BME280;5895;41.950;24.372;2023-03-22T13:00:48;86508.13;;;6.34;81.48
11678;BME280;5895;41.950;24.372;2023-03-22T13:03:23;86500.19;;;6.35;83.33
11678;BME280;5895;41.950;24.372;2023-03-22T13:06:04;86494.03;;;6.36;85.04
11678;BME280;5895;41.950;24.372;2023-03-22T13:09:01;86500.78;;;6.38;85.35
11678;BME280;5895;41.950;24.372;2023-03-22T13:11:29;86495.03;;;6.35;81.39
11678;BME280;5895;41.950;24.372;2023-03-22T13:13:56;86495.63;;;6.38;81.09
11678;BME280;5895;41.950;24.372;2023-03-22T13:16:47;86500.78;;;6.38;85.02
11678;BME280;5895;41.950;24.372;2023-03-22T13:19:28;86495.63;;;6.38;83.52
11678;BME280;5895;41.950;24.372;2023-03-22T13:22:20;86493.59;;;6.40;85.59
11678;BME280;5895;41.950;24.372;2023-03-22T13:25:11;86493.19;;;6.43;84.87
11678;BME280;5895;41.950;24.372;2023-03-22T13:27:42;86491.19;;;6.45;80.84
11678;BME280;5895;41.950;24.372;2023-03-22T13:30:22;86484.63;;;6.49;81.97
11678;BME280;5895;41.950;24.372;2023-03-22T13:32:52;86492.50;;;6.54;81.73
11678;BME280;5895;41.950;24.372;2023-03-22T13:35:23;86489.09;;;6.60;80.75